sensor_id;sensor_type;location;lat;lon;timestamp;P1;durP1;ratioP1;P2;durP2;ratioP2
37693;SDS011;23531;50.122;8.644;2024-01-30T00:01:20;40.80;;;24.98;;
37693;SDS011;23531;50.122;8.644;2024-01-30T00:03:21;45.42;;;25.85;;
37693;SDS011;23531;50.122;8.644;2024-01-30T00:05:23;38.38;;;23.92;;
37693;SDS011;23531;50.122;8.644;2024-01-30T00:07:24;40.70;;;24.70;;
37693;SDS011;23531;50.122;8.644;2024-01-30T00:09:26;39.88;;;24.35;;
37693;SDS011;23531;50.122;8.644;2024-01-30T00:11:28;41.25;;;24.70;;
37693;SDS011;23531;50.122;8.644;2024-01-30T00:13:30;42.10;;;24.50;;
37693;SDS011;23531;50.122;8.644;2024-01-30T00:15:31;37.10;;;23.17;;
37693;SDS011;23531;50.122;8.644;2024-01-30T00:17:32;37.70;;;23.35;;
37693;SDS011;23531;50.122;8.644;2024-01-30T00:19:33;38.75;;;23.65;;
37693;SDS011;23531;50.122;8.644;2024-01-30T00:21:34;35.10;;;22.83;;
37693;SDS011;23531;50.122;8.644;2024-01-30T00:23:36;39.42;;;24.70;;
37693;SDS011;23531;50.122;8.644;2024-01-30T00:25:37;39.70;;;23.90;;
37693;SDS011;23531;50.122;8.644;2024-01-30T00:27:40;38.65;;;23.67;;
37693;SDS011;23531;50.122;8.644;2024-01-30T00:29:41;40.65;;;23.13;;
37693;SDS011;23531;50.122;8.644;2024-01-30T00:31:42;39.85;;;23.83;;
37693;SDS011;23531;50.122;8.644;2024-01-30T00:33:43;36.70;;;24.02;;
37693;SDS011;23531;50.122;8.644;2024-01-30T00:35:45;37.70;;;23.73;;
37693;SDS011;23531;50.122;8.644;2024-01-30T00:37:45;40.22;;;22.80;;
37693;SDS011;23531;50.122;8.644;2024-01-30T00:39:46;36.80;;;22.05;;
37693;SDS011;23531;50.122;8.644;2024-01-30T00:41:47;34.42;;;22.02;;
37693;SDS011;23531;50.122;8.644;2024-01-30T00:43:50;35.80;;;21.25;;
37693;SDS011;23531;50.122;8.644;2024-01-30T00:45:51;34.22;;;20.70;;
37693;SDS011;23531;50.122;8.644;2024-01-30T00:47:53;36.08;;;22.90;;
37693;SDS011;23531;50.122;8.644;2024-01-30T00:49:53;32.35;;;21.45;;
37693;SDS011;23531;50.122;8.644;2024-01-30T00:51:54;36.28;;;21.25;;
37693;SDS011;23531;50.122;8.644;2024-01-30T00:53:56;32.67;;;21.45;;
37693;SDS011;23531;50.122;8.644;2024-01-30T00:55:57;36.05;;;21.40;;
37693;SDS011;23531;50.122;8.644;2024-01-30T00:57:58;34.25;;;22.52;;
37693;SDS011;23531;50.122;8.644;2024-01-30T01:00:00;34.90;;;21.70;;
37693;SDS011;23531;50.122;8.644;2024-01-30T01:02:03;35.70;;;20.83;;
37693;SDS011;23531;50.122;8.644;2024-01-30T01:04:04;37.53;;;22.65;;
37693;SDS011;23531;50.122;8.644;2024-01-30T01:06:07;34.50;;;22.05;;
37693;SDS011;23531;50.122;8.644;2024-01-30T01:08:07;34.33;;;21.17;;
37693;SDS011;23531;50.122;8.644;2024-01-30T01:10:09;32.40;;;20.40;;
37693;SDS011;23531;50.122;8.644;2024-01-30T01:12:11;30.65;;;20.15;;
37693;SDS011;23531;50.122;8.644;2024-01-30T01:14:13;30.08;;;20.65;;
37693;SDS011;23531;50.122;8.644;2024-01-30T01:16:15;29.50;;;19.95;;
37693;SDS011;23531;50.122;8.644;2024-01-30T01:18:17;35.63;;;21.67;;
37693;SDS011;23531;50.122;8.644;2024-01-30T01:20:18;35.20;;;21.48;;
37693;SDS011;23531;50.122;8.644;2024-01-30T01:22:20;37.47;;;21.40;;
37693;SDS011;23531;50.122;8.644;2024-01-30T01:24:21;38.95;;;21.38;;
37693;SDS011;23531;50.122;8.644;2024-01-30T01:26:23;31.80;;;21.10;;
37693;SDS011;23531;50.122;8.644;2024-01-30T01:28:23;34.35;;;22.23;;
37693;SDS011;23531;50.122;8.644;2024-01-30T01:30:25;36.40;;;21.95;;
37693;SDS011;23531;50.122;8.644;2024-01-30T01:32:28;37.30;;;21.73;;
37693;SDS011;23531;50.122;8.644;2024-01-30T01:34:29;38.72;;;22.33;;
37693;SDS011;23531;50.122;8.644;2024-01-30T01:36:31;33.22;;;21.20;;
37693;SDS011;23531;50.122;8.644;2024-01-30T01:38:32;37.83;;;22.02;;
37693;SDS011;23531;50.122;8.644;2024-01-30T01:40:33;31.67;;;20.75;;
37693;SDS011;23531;50.122;8.644;2024-01-30T01:42:35;33.03;;;20.08;;
37693;SDS011;23531;50.122;8.644;2024-01-30T01:44:35;37.08;;;20.83;;
37693;SDS011;23531;50.122;8.644;2024-01-30T01:46:37;34.25;;;21.40;;
37693;SDS011;23531;50.122;8.644;2024-01-30T01:48:40;34.75;;;21.45;;
37693;SDS011;23531;50.122;8.644;2024-01-30T01:50:43;35.42;;;20.90;;
37693;SDS011;23531;50.122;8.644;2024-01-30T01:52:44;33.03;;;19.88;;
37693;SDS011;23531;50.122;8.644;2024-01-30T01:54:49;35.45;;;21.95;;
37693;SDS011;23531;50.122;8.644;2024-01-30T01:56:50;37.67;;;23.00;;
37693;SDS011;23531;50.122;8.644;2024-01-30T01:58:54;34.58;;;21.02;;
37693;SDS011;23531;50.122;8.644;2024-01-30T02:00:55;39.35;;;21.38;;
